sensor_id;sensor_type;location;lat;lon;timestamp;P1;durP1;ratioP1;P2;durP2;ratioP2
10144;SDS011;5113;41.822;23.564;2023-02-18T00:01:42;30.63;;;14.47;;
10144;SDS011;5113;41.822;23.564;2023-02-18T00:04:49;46.93;;;20.73;;
10144;SDS011;5113;41.822;23.564;2023-02-18T00:07:57;42.67;;;18.70;;
10144;SDS011;5113;41.822;23.564;2023-02-18T00:11:03;33.07;;;14.67;;
10144;SDS011;5113;41.822;23.564;2023-02-18T00:14:11;23.37;;;11.37;;
10144;SDS011;5113;41.822;23.564;2023-02-18T00:17:18;12.17;;;7.97;;
10144;SDS011;5113;41.822;23.564;2023-02-18T00:20:25;11.60;;;7.97;;
10144;SDS011;5113;41.822;23.564;2023-02-18T00:23:33;22.87;;;9.13;;
10144;SDS011;5113;41.822;23.564;2023-02-18T00:26:39;19.93;;;9.33;;
10144;SDS011;5113;41.822;23.564;2023-02-18T00:29:46;19.97;;;10.53;;
10144;SDS011;5113;41.822;23.564;2023-02-18T00:32:52;17.27;;;11.83;;
10144;SDS011;5113;41.822;23.564;2023-02-18T00:36:00;31.33;;;12.80;;
10144;SDS011;5113;41.822;23.564;2023-02-18T00:39:08;23.83;;;11.60;;
10144;SDS011;5113;41.822;23.564;2023-02-18T00:42:16;26.57;;;11.70;;
10144;SDS011;5113;41.822;23.564;2023-02-18T00:45:22;17.57;;;8.67;;
10144;SDS011;5113;41.822;23.564;2023-02-18T00:48:28;12.53;;;8.77;;
10144;SDS011;5113;41.822;23.564;2023-02-18T00:51:35;17.57;;;9.60;;
10144;SDS011;5113;41.822;23.564;2023-02-18T00:54:43;10.60;;;6.57;;
10144;SDS011;5113;41.822;23.564;2023-02-18T00:57:49;17.97;;;9.27;;
10144;SDS011;5113;41.822;23.564;2023-02-18T01:00:56;24.00;;;9.63;;
10144;SDS011;5113;41.822;23.564;2023-02-18T01:04:02;16.10;;;10.00;;
10144;SDS011;5113;41.822;23.564;2023-02-18T01:07:09;9.60;;;6.80;;
10144;SDS011;5113;41.822;23.564;2023-02-18T01:10:16;8.03;;;7.23;;
10144;SDS011;5113;41.822;23.564;2023-02-18T01:13:23;8.20;;;7.33;;
10144;SDS011;5113;41.822;23.564;2023-02-18T01:16:30;18.20;;;6.97;;
10144;SDS011;5113;41.822;23.564;2023-02-18T01:19:36;26.70;;;10.60;;
10144;SDS011;5113;41.822;23.564;2023-02-18T01:22:42;14.43;;;8.83;;
10144;SDS011;5113;41.822;23.564;2023-02-18T01:25:50;36.17;;;13.50;;
10144;SDS011;5113;41.822;23.564;2023-02-18T01:28:57;14.13;;;8.90;;
10144;SDS011;5113;41.822;23.564;2023-02-18T01:32:04;13.23;;;6.53;;
10144;SDS011;5113;41.822;23.564;2023-02-18T01:35:11;17.07;;;8.53;;
10144;SDS011;5113;41.822;23.564;2023-02-18T01:38:18;14.23;;;8.33;;
10144;SDS011;5113;41.822;23.564;2023-02-18T01:41:26;14.03;;;6.60;;
10144;SDS011;5113;41.822;23.564;2023-02-18T01:44:32;17.60;;;7.83;;
10144;SDS011;5113;41.822;23.564;2023-02-18T01:47:39;14.20;;;7.23;;
10144;SDS011;5113;41.822;23.564;2023-02-18T01:50:46;19.00;;;7.60;;
10144;SDS011;5113;41.822;23.564;2023-02-18T01:53:56;17.53;;;9.03;;
10144;SDS011;5113;41.822;23.564;2023-02-18T01:57:10;24.37;;;8.93;;
10144;SDS011;5113;41.822;23.564;2023-02-18T02:00:18;10.63;;;7.63;;
10144;SDS011;5113;41.822;23.564;2023-02-18T02:03:26;15.23;;;7.17;;
10144;SDS011;5113;41.822;23.564;2023-02-18T02:06:32;14.30;;;7.20;;
10144;SDS011;5113;41.822;23.564;2023-02-18T02:09:39;11.57;;;6.80;;
10144;SDS011;5113;41.822;23.564;2023-02-18T02:12:51;7.17;;;6.03;;
10144;SDS011;5113;41.822;23.564;2023-02-18T02:16:06;7.60;;;5.37;;
10144;SDS011;5113;41.822;23.564;2023-02-18T02:26:57;10.47;;;5.67;;
10144;SDS011;5113;41.822;23.564;2023-02-18T02:30:33;10.07;;;5.77;;
10144;SDS011;5113;41.822;23.564;2023-02-18T02:34:02;10.30;;;5.80;;
10144;SDS011;5113;41.822;23.564;2023-02-18T02:37:40;8.93;;;5.93;;
10144;SDS011;5113;41.822;23.564;2023-02-18T02:40:54;10.20;;;6.33;;
10144;SDS011;5113;41.822;23.564;2023-02-18T02:44:10;10.63;;;5.87;;
10144;SDS011;5113;41.822;23.564;2023-02-18T02:47:26;9.97;;;6.53;;
10144;SDS011;5113;41.822;23.564;2023-02-18T02:50:41;7.30;;;5.90;;
10144;SDS011;5113;41.822;23.564;2023-02-18T02:53:50;21.30;;;6.87;;
10144;SDS011;5113;41.822;23.564;2023-02-18T02:57:08;10.60;;;6.40;;
10144;SDS011;5113;41.822;23.564;2023-02-18T03:00:37;10.20;;;6.53;;
10144;SDS011;5113;41.822;23.564;2023-02-18T03:04:00;20.93;;;9.23;;
10144;SDS011;5113;41.822;23.564;2023-02-18T03:07:40;22.33;;;9.13;;
10144;SDS011;5113;41.822;23.564;2023-02-18T03:11:01;19.80;;;11.57;;
10144;SDS011;5113;41.822;23.564;2023-02-18T03:14:11;17.37;;;9.00;;
10144;SDS011;5113;41.822;23.564;2023-02-18T03:17:26;24.10;;;11.63;;
10144;SDS011;5113;41.822;23.564;2023-02-18T03:20:38;16.37;;;8.83;;
10144;SDS011;5113;41.822;23.564;2023-02-18T03:23:50;19.23;;;10.70;;
10144;SDS011;5113;41.822;23.564;2023-02-18T03:27:03;15.37;;;8.57;;
10144;SDS011;5113;41.822;23.564;2023-02-18T03:30:15;26.80;;;12.00;;
10144;SDS011;5113;41.822;23.564;2023-02-18T03:33:30;14.83;;;10.00;;
10144;SDS011;5113;41.822;23.564;2023-02-18T03:36:42;12.63;;;8.13;;
10144;SDS011;5113;41.822;23.564;2023-02-18T03:39:50;13.57;;;7.03;;
10144;SDS011;5113;41.822;23.564;2023-02-18T03:43:01;10.70;;;6.10;;
10144;SDS011;5113;41.822;23.564;2023-02-18T03:46:07;9.93;;;7.20;;
10144;SDS011;5113;41.822;23.564;2023-02-18T03:49:13;7.97;;;6.93;;
10144;SDS011;5113;41.822;23.564;2023-02-18T03:52:20;11.07;;;7.00;;
10144;SDS011;5113;41.822;23.564;2023-02-18T03:55:27;14.87;;;6.80;;
10144;SDS011;5113;41.822;23.564;2023-02-18T03:58:33;11.77;;;7.33;;
10144;SDS011;5113;41.822;23.564;2023-02-18T04:01:40;18.90;;;9.13;;
10144;SDS011;5113;41.822;23.564;2023-02-18T04:04:46;17.53;;;9.23;;
10144;SDS011;5113;41.822;23.564;2023-02-18T04:07:52;23.30;;;11.53;;
10144;SDS011;5113;41.822;23.564;2023-02-18T04:10:59;63.57;;;26.67;;
10144;SDS011;5113;41.822;23.564;2023-02-18T04:14:06;46.80;;;20.50;;
10144;SDS011;5113;41.822;23.564;2023-02-18T04:17:12;50.23;;;19.03;;
10144;SDS011;5113;41.822;23.564;2023-02-18T04:20:18;47.90;;;19.20;;
10144;SDS011;5113;41.822;23.564;2023-02-18T04:23:26;39.63;;;16.07;;
10144;SDS011;5113;41.822;23.564;2023-02-18T04:26:33;43.17;;;15.10;;
10144;SDS011;5113;41.822;23.564;2023-02-18T04:29:39;40.17;;;16.33;;
10144;SDS011;5113;41.822;23.564;2023-02-18T04:32:45;38.80;;;14.50;;
10144;SDS011;5113;41.822;23.564;2023-02-18T04:35:52;42.57;;;18.13;;
10144;SDS011;5113;41.822;23.564;2023-02-18T04:38:58;37.33;;;19.13;;
10144;SDS011;5113;41.822;23.564;2023-02-18T04:42:06;36.70;;;13.13;;
10144;SDS011;5113;41.822;23.564;2023-02-18T04:45:14;27.63;;;13.40;;
10144;SDS011;5113;41.822;23.564;2023-02-18T04:48:20;14.20;;;8.83;;
10144;SDS011;5113;41.822;23.564;2023-02-18T04:51:27;10.10;;;7.97;;
10144;SDS011;5113;41.822;23.564;2023-02-18T04:54:33;19.27;;;9.63;;
10144;SDS011;5113;41.822;23.564;2023-02-18T04:57:40;13.13;;;8.73;;
10144;SDS011;5113;41.822;23.564;2023-02-18T05:00:47;35.20;;;18.27;;
10144;SDS011;5113;41.822;23.564;2023-02-18T05:03:53;74.43;;;26.47;;
10144;SDS011;5113;41.822;23.564;2023-02-18T05:06:59;71.07;;;29.80;;
10144;SDS011;5113;41.822;23.564;2023-02-18T05:10:06;46.63;;;23.03;;
10144;SDS011;5113;41.822;23.564;2023-02-18T05:13:14;20.30;;;12.17;;
10144;SDS011;5113;41.822;23.564;2023-02-18T05:16:21;26.43;;;14.07;;
10144;SDS011;5113;41.822;23.564;2023-02-18T05:19:27;21.23;;;9.57;;
10144;SDS011;5113;41.822;23.564;2023-02-18T05:22:33;19.57;;;11.80;;
10144;SDS011;5113;41.822;23.564;2023-02-18T05:25:39;27.73;;;15.17;;
10144;SDS011;5113;41.822;23.564;2023-02-18T05:28:47;35.20;;;20.27;;
10144;SDS011;5113;41.822;23.564;2023-02-18T05:31:53;32.37;;;17.07;;
10144;SDS011;5113;41.822;23.564;2023-02-18T05:34:59;41.40;;;21.27;;
10144;SDS011;5113;41.822;23.564;2023-02-18T05:38:05;61.07;;;22.80;;
10144;SDS011;5113;41.822;23.564;2023-02-18T05:41:12;51.87;;;25.30;;
10144;SDS011;5113;41.822;23.564;2023-02-18T05:44:20;86.07;;;36.77;;
10144;SDS011;5113;41.822;23.564;2023-02-18T05:47:35;87.67;;;38.87;;
10144;SDS011;5113;41.822;23.564;2023-02-18T05:50:41;75.63;;;33.83;;
10144;SDS011;5113;41.822;23.564;2023-02-18T05:53:47;66.97;;;32.97;;
10144;SDS011;5113;41.822;23.564;2023-02-18T05:56:53;79.47;;;39.40;;
10144;SDS011;5113;41.822;23.564;2023-02-18T06:00:02;105.60;;;43.60;;
10144;SDS011;5113;41.822;23.564;2023-02-18T06:03:09;91.90;;;41.80;;
10144;SDS011;5113;41.822;23.564;2023-02-18T06:06:15;70.73;;;37.53;;
10144;SDS011;5113;41.822;23.564;2023-02-18T06:09:21;68.83;;;38.77;;
10144;SDS011;5113;41.822;23.564;2023-02-18T06:12:28;46.53;;;22.67;;
10144;SDS011;5113;41.822;23.564;2023-02-18T06:15:36;47.97;;;22.53;;
10144;SDS011;5113;41.822;23.564;2023-02-18T06:18:43;49.23;;;22.63;;
10144;SDS011;5113;41.822;23.564;2023-02-18T06:21:49;55.00;;;20.17;;
10144;SDS011;5113;41.822;23.564;2023-02-18T06:24:56;38.87;;;18.37;;
10144;SDS011;5113;41.822;23.564;2023-02-18T06:28:02;25.07;;;15.10;;
10144;SDS011;5113;41.822;23.564;2023-02-18T06:31:10;33.87;;;20.07;;
10144;SDS011;5113;41.822;23.564;2023-02-18T06:34:17;39.30;;;18.23;;
10144;SDS011;5113;41.822;23.564;2023-02-18T06:37:23;33.20;;;21.17;;
10144;SDS011;5113;41.822;23.564;2023-02-18T06:40:30;60.50;;;30.03;;
10144;SDS011;5113;41.822;23.564;2023-02-18T06:43:36;104.70;;;41.57;;
10144;SDS011;5113;41.822;23.564;2023-02-18T06:46:44;99.60;;;49.10;;
10144;SDS011;5113;41.822;23.564;2023-02-18T06:49:50;62.90;;;31.67;;
10144;SDS011;5113;41.822;23.564;2023-02-18T06:52:56;35.43;;;18.43;;
10144;SDS011;5113;41.822;23.564;2023-02-18T06:56:03;19.07;;;11.87;;
10144;SDS011;5113;41.822;23.564;2023-02-18T06:59:10;51.63;;;18.87;;
10144;SDS011;5113;41.822;23.564;2023-02-18T07:02:18;21.83;;;12.83;;
10144;SDS011;5113;41.822;23.564;2023-02-18T07:05:24;101.50;;;42.23;;
10144;SDS011;5113;41.822;23.564;2023-02-18T07:08:31;35.97;;;16.90;;
10144;SDS011;5113;41.822;23.564;2023-02-18T07:11:39;31.27;;;18.13;;
10144;SDS011;5113;41.822;23.564;2023-02-18T07:14:45;57.03;;;28.13;;
10144;SDS011;5113;41.822;23.564;2023-02-18T07:17:53;37.07;;;23.13;;
10144;SDS011;5113;41.822;23.564;2023-02-18T07:21:00;38.80;;;22.00;;
10144;SDS011;5113;41.822;23.564;2023-02-18T07:24:06;37.37;;;19.33;;
10144;SDS011;5113;41.822;23.564;2023-02-18T07:27:13;38.47;;;19.70;;
10144;SDS011;5113;41.822;23.564;2023-02-18T07:30:19;48.30;;;24.63;;
10144;SDS011;5113;41.822;23.564;2023-02-18T07:33:27;113.97;;;45.03;;
10144;SDS011;5113;41.822;23.564;2023-02-18T07:36:34;79.80;;;34.27;;
10144;SDS011;5113;41.822;23.564;2023-02-18T07:39:40;68.07;;;28.97;;
10144;SDS011;5113;41.822;23.564;2023-02-18T07:42:47;47.10;;;25.67;;
10144;SDS011;5113;41.822;23.564;2023-02-18T07:45:54;61.57;;;28.43;;
10144;SDS011;5113;41.822;23.564;2023-02-18T07:49:02;65.23;;;30.70;;
10144;SDS011;5113;41.822;23.564;2023-02-18T07:52:08;59.83;;;27.20;;
10144;SDS011;5113;41.822;23.564;2023-02-18T07:55:14;67.00;;;33.57;;
10144;SDS011;5113;41.822;23.564;2023-02-18T07:58:21;74.30;;;39.03;;
10144;SDS011;5113;41.822;23.564;2023-02-18T08:01:28;78.87;;;39.43;;
10144;SDS011;5113;41.822;23.564;2023-02-18T08:04:36;71.67;;;34.63;;
10144;SDS011;5113;41.822;23.564;2023-02-18T08:07:42;63.33;;;32.37;;
10144;SDS011;5113;41.822;23.564;2023-02-18T08:10:50;91.97;;;40.43;;
10144;SDS011;5113;41.822;23.564;2023-02-18T08:13:57;99.73;;;43.83;;
10144;SDS011;5113;41.822;23.564;2023-02-18T08:17:03;140.60;;;61.17;;
10144;SDS011;5113;41.822;23.564;2023-02-18T08:20:11;133.63;;;53.20;;
10144;SDS011;5113;41.822;23.564;2023-02-18T08:23:18;101.67;;;51.13;;
10144;SDS011;5113;41.822;23.564;2023-02-18T08:26:26;87.17;;;43.90;;
10144;SDS011;5113;41.822;23.564;2023-02-18T08:29:34;54.67;;;27.57;;
10144;SDS011;5113;41.822;23.564;2023-02-18T08:32:40;59.20;;;24.57;;
10144;SDS011;5113;41.822;23.564;2023-02-18T08:35:49;71.73;;;30.80;;
10144;SDS011;5113;41.822;23.564;2023-02-18T08:38:56;46.30;;;22.93;;
10144;SDS011;5113;41.822;23.564;2023-02-18T08:42:03;53.07;;;24.83;;
10144;SDS011;5113;41.822;23.564;2023-02-18T08:45:10;29.27;;;15.37;;
10144;SDS011;5113;41.822;23.564;2023-02-18T08:48:16;30.07;;;15.50;;
10144;SDS011;5113;41.822;23.564;2023-02-18T08:51:25;57.33;;;27.80;;
10144;SDS011;5113;41.822;23.564;2023-02-18T08:54:31;39.90;;;22.30;;
10144;SDS011;5113;41.822;23.564;2023-02-18T08:57:38;39.70;;;22.13;;
10144;SDS011;5113;41.822;23.564;2023-02-18T09:00:44;58.17;;;34.13;;
10144;SDS011;5113;41.822;23.564;2023-02-18T09:03:50;62.03;;;30.23;;
10144;SDS011;5113;41.822;23.564;2023-02-18T09:06:58;68.77;;;33.50;;
10144;SDS011;5113;41.822;23.564;2023-02-18T09:10:05;47.40;;;27.93;;
10144;SDS011;5113;41.822;23.564;2023-02-18T09:13:12;67.43;;;31.63;;
10144;SDS011;5113;41.822;23.564;2023-02-18T09:16:19;58.93;;;31.40;;
10144;SDS011;5113;41.822;23.564;2023-02-18T09:19:28;57.13;;;31.73;;
10144;SDS011;5113;41.822;23.564;2023-02-18T09:22:35;78.10;;;39.17;;
10144;SDS011;5113;41.822;23.564;2023-02-18T09:25:42;137.10;;;60.87;;
10144;SDS011;5113;41.822;23.564;2023-02-18T09:28:49;81.00;;;37.10;;
10144;SDS011;5113;41.822;23.564;2023-02-18T09:31:58;54.33;;;22.53;;
10144;SDS011;5113;41.822;23.564;2023-02-18T09:35:05;23.23;;;14.53;;
10144;SDS011;5113;41.822;23.564;2023-02-18T09:38:14;36.00;;;20.03;;
10144;SDS011;5113;41.822;23.564;2023-02-18T09:41:25;30.93;;;14.30;;
10144;SDS011;5113;41.822;23.564;2023-02-18T09:44:35;18.30;;;11.73;;
10144;SDS011;5113;41.822;23.564;2023-02-18T09:47:47;23.73;;;14.17;;
10144;SDS011;5113;41.822;23.564;2023-02-18T09:50:54;15.53;;;8.40;;
10144;SDS011;5113;41.822;23.564;2023-02-18T09:54:03;15.43;;;7.90;;
10144;SDS011;5113;41.822;23.564;2023-02-18T09:57:14;10.03;;;6.60;;
10144;SDS011;5113;41.822;23.564;2023-02-18T10:00:28;10.57;;;6.40;;
10144;SDS011;5113;41.822;23.564;2023-02-18T10:03:38;12.17;;;6.67;;
10144;SDS011;5113;41.822;23.564;2023-02-18T10:06:47;12.10;;;6.40;;
10144;SDS011;5113;41.822;23.564;2023-02-18T10:09:58;7.53;;;5.17;;
10144;SDS011;5113;41.822;23.564;2023-02-18T10:13:10;13.37;;;8.13;;
10144;SDS011;5113;41.822;23.564;2023-02-18T10:16:18;12.47;;;7.13;;
10144;SDS011;5113;41.822;23.564;2023-02-18T10:19:28;14.73;;;8.40;;
10144;SDS011;5113;41.822;23.564;2023-02-18T10:22:38;10.47;;;6.37;;
10144;SDS011;5113;41.822;23.564;2023-02-18T10:25:46;37.60;;;19.57;;
10144;SDS011;5113;41.822;23.564;2023-02-18T10:28:54;28.40;;;9.97;;
10144;SDS011;5113;41.822;23.564;2023-02-18T10:32:03;34.13;;;16.30;;
10144;SDS011;5113;41.822;23.564;2023-02-18T10:35:20;22.03;;;11.17;;
10144;SDS011;5113;41.822;23.564;2023-02-18T10:38:32;22.00;;;11.63;;
10144;SDS011;5113;41.822;23.564;2023-02-18T10:41:52;13.03;;;7.20;;
10144;SDS011;5113;41.822;23.564;2023-02-18T10:45:08;5.63;;;4.87;;
10144;SDS011;5113;41.822;23.564;2023-02-18T10:48:31;12.90;;;5.73;;
10144;SDS011;5113;41.822;23.564;2023-02-18T10:51:47;4.27;;;2.97;;
10144;SDS011;5113;41.822;23.564;2023-02-18T10:55:00;7.83;;;6.00;;
10144;SDS011;5113;41.822;23.564;2023-02-18T10:58:27;8.53;;;5.27;;
10144;SDS011;5113;41.822;23.564;2023-02-18T11:01:37;5.93;;;4.47;;
10144;SDS011;5113;41.822;23.564;2023-02-18T11:04:44;4.80;;;2.83;;
10144;SDS011;5113;41.822;23.564;2023-02-18T11:07:52;7.23;;;5.13;;
10144;SDS011;5113;41.822;23.564;2023-02-18T11:11:05;13.97;;;8.43;;
10144;SDS011;5113;41.822;23.564;2023-02-18T11:14:32;9.57;;;5.07;;
10144;SDS011;5113;41.822;23.564;2023-02-18T11:17:48;8.63;;;5.20;;
10144;SDS011;5113;41.822;23.564;2023-02-18T11:20:56;2.77;;;2.57;;
10144;SDS011;5113;41.822;23.564;2023-02-18T11:24:05;5.17;;;3.23;;
10144;SDS011;5113;41.822;23.564;2023-02-18T11:27:17;3.83;;;3.07;;
10144;SDS011;5113;41.822;23.564;2023-02-18T11:30:35;13.83;;;5.63;;
10144;SDS011;5113;41.822;23.564;2023-02-18T11:33:46;11.13;;;5.70;;
10144;SDS011;5113;41.822;23.564;2023-02-18T11:36:55;11.83;;;6.00;;
10144;SDS011;5113;41.822;23.564;2023-02-18T11:40:19;6.27;;;4.07;;
10144;SDS011;5113;41.822;23.564;2023-02-18T11:43:28;6.97;;;3.80;;
10144;SDS011;5113;41.822;23.564;2023-02-18T11:46:37;7.67;;;4.90;;
10144;SDS011;5113;41.822;23.564;2023-02-18T11:49:44;6.60;;;3.53;;
10144;SDS011;5113;41.822;23.564;2023-02-18T11:53:23;10.30;;;5.13;;
10144;SDS011;5113;41.822;23.564;2023-02-18T11:56:33;7.70;;;4.53;;
10144;SDS011;5113;41.822;23.564;2023-02-18T11:59:40;15.80;;;8.00;;
10144;SDS011;5113;41.822;23.564;2023-02-18T12:02:50;19.47;;;10.30;;
10144;SDS011;5113;41.822;23.564;2023-02-18T12:05:57;15.50;;;7.03;;
10144;SDS011;5113;41.822;23.564;2023-02-18T12:09:13;7.30;;;4.43;;
10144;SDS011;5113;41.822;23.564;2023-02-18T12:12:25;11.13;;;5.37;;
10144;SDS011;5113;41.822;23.564;2023-02-18T12:15:42;7.27;;;5.23;;
10144;SDS011;5113;41.822;23.564;2023-02-18T12:19:04;5.63;;;2.90;;
10144;SDS011;5113;41.822;23.564;2023-02-18T12:22:26;8.00;;;5.10;;
10144;SDS011;5113;41.822;23.564;2023-02-18T12:25:46;11.00;;;5.90;;
10144;SDS011;5113;41.822;23.564;2023-02-18T12:29:04;10.73;;;5.47;;
10144;SDS011;5113;41.822;23.564;2023-02-18T12:32:25;24.07;;;8.60;;
10144;SDS011;5113;41.822;23.564;2023-02-18T12:35:51;18.20;;;9.67;;
10144;SDS011;5113;41.822;23.564;2023-02-18T12:39:10;22.43;;;9.67;;
10144;SDS011;5113;41.822;23.564;2023-02-18T12:42:24;35.67;;;15.67;;
10144;SDS011;5113;41.822;23.564;2023-02-18T12:45:53;14.00;;;9.03;;
10144;SDS011;5113;41.822;23.564;2023-02-18T12:49:19;20.37;;;11.37;;
10144;SDS011;5113;41.822;23.564;2023-02-18T12:52:40;11.30;;;6.67;;
10144;SDS011;5113;41.822;23.564;2023-02-18T12:56:08;9.83;;;4.90;;
10144;SDS011;5113;41.822;23.564;2023-02-18T12:59:35;10.30;;;6.07;;
10144;SDS011;5113;41.822;23.564;2023-02-18T13:03:10;6.70;;;4.17;;
10144;SDS011;5113;41.822;23.564;2023-02-18T13:06:41;4.80;;;3.13;;
10144;SDS011;5113;41.822;23.564;2023-02-18T13:13:33;4.03;;;3.60;;
10144;SDS011;5113;41.822;23.564;2023-02-18T13:16:46;6.97;;;3.87;;
10144;SDS011;5113;41.822;23.564;2023-02-18T13:19:56;5.83;;;3.57;;
10144;SDS011;5113;41.822;23.564;2023-02-18T13:23:09;12.03;;;5.93;;
10144;SDS011;5113;41.822;23.564;2023-02-18T13:26:25;9.60;;;5.97;;
10144;SDS011;5113;41.822;23.564;2023-02-18T13:29:35;7.63;;;5.27;;
10144;SDS011;5113;41.822;23.564;2023-02-18T13:32:52;8.53;;;6.47;;
10144;SDS011;5113;41.822;23.564;2023-02-18T13:36:12;8.33;;;5.33;;
10144;SDS011;5113;41.822;23.564;2023-02-18T13:39:30;7.27;;;4.13;;
10144;SDS011;5113;41.822;23.564;2023-02-18T13:42:39;10.20;;;5.67;;
10144;SDS011;5113;41.822;23.564;2023-02-18T13:49:10;49.33;;;24.97;;
10144;SDS011;5113;41.822;23.564;2023-02-18T13:52:17;13.33;;;7.20;;
10144;SDS011;5113;41.822;23.564;2023-02-18T13:55:26;37.00;;;17.37;;
10144;SDS011;5113;41.822;23.564;2023-02-18T13:58:47;33.70;;;15.90;;
10144;SDS011;5113;41.822;23.564;2023-02-18T14:01:55;54.80;;;22.77;;
10144;SDS011;5113;41.822;23.564;2023-02-18T14:05:37;24.80;;;13.23;;
10144;SDS011;5113;41.822;23.564;2023-02-18T14:08:45;33.63;;;15.93;;
10144;SDS011;5113;41.822;23.564;2023-02-18T14:11:53;29.13;;;18.57;;
10144;SDS011;5113;41.822;23.564;2023-02-18T14:15:02;18.00;;;10.17;;
10144;SDS011;5113;41.822;23.564;2023-02-18T14:18:36;111.70;;;43.27;;
10144;SDS011;5113;41.822;23.564;2023-02-18T14:25:35;28.73;;;20.07;;
10144;SDS011;5113;41.822;23.564;2023-02-18T14:28:48;14.50;;;8.20;;
10144;SDS011;5113;41.822;23.564;2023-02-18T14:32:01;15.50;;;10.03;;
10144;SDS011;5113;41.822;23.564;2023-02-18T14:35:20;53.73;;;25.37;;
10144;SDS011;5113;41.822;23.564;2023-02-18T14:38:37;71.77;;;27.03;;
10144;SDS011;5113;41.822;23.564;2023-02-18T14:41:54;113.47;;;42.00;;
10144;SDS011;5113;41.822;23.564;2023-02-18T14:45:11;86.97;;;38.10;;
10144;SDS011;5113;41.822;23.564;2023-02-18T14:48:42;17.33;;;10.03;;
10144;SDS011;5113;41.822;23.564;2023-02-18T14:52:01;64.37;;;32.93;;
10144;SDS011;5113;41.822;23.564;2023-02-18T14:55:14;8.93;;;8.03;;
10144;SDS011;5113;41.822;23.564;2023-02-18T14:58:27;17.27;;;12.63;;
10144;SDS011;5113;41.822;23.564;2023-02-18T15:01:36;8.67;;;7.10;;
10144;SDS011;5113;41.822;23.564;2023-02-18T15:04:45;10.57;;;7.50;;
10144;SDS011;5113;41.822;23.564;2023-02-18T15:07:55;10.57;;;6.13;;
10144;SDS011;5113;41.822;23.564;2023-02-18T15:11:02;7.43;;;5.37;;
10144;SDS011;5113;41.822;23.564;2023-02-18T15:14:13;38.50;;;17.10;;
10144;SDS011;5113;41.822;23.564;2023-02-18T15:17:24;38.13;;;20.97;;
10144;SDS011;5113;41.822;23.564;2023-02-18T15:20:33;13.63;;;6.40;;
10144;SDS011;5113;41.822;23.564;2023-02-18T15:23:40;52.60;;;23.17;;
10144;SDS011;5113;41.822;23.564;2023-02-18T15:26:46;46.33;;;21.13;;
10144;SDS011;5113;41.822;23.564;2023-02-18T15:29:56;29.93;;;11.73;;
10144;SDS011;5113;41.822;23.564;2023-02-18T15:33:08;31.60;;;12.87;;
10144;SDS011;5113;41.822;23.564;2023-02-18T15:36:19;18.10;;;8.47;;
10144;SDS011;5113;41.822;23.564;2023-02-18T15:39:25;11.23;;;8.00;;
10144;SDS011;5113;41.822;23.564;2023-02-18T15:42:32;24.10;;;13.07;;
10144;SDS011;5113;41.822;23.564;2023-02-18T15:45:40;22.87;;;15.63;;
10144;SDS011;5113;41.822;23.564;2023-02-18T15:48:48;43.17;;;21.30;;
10144;SDS011;5113;41.822;23.564;2023-02-18T15:51:57;30.57;;;18.17;;
10144;SDS011;5113;41.822;23.564;2023-02-18T15:55:06;56.10;;;27.93;;
10144;SDS011;5113;41.822;23.564;2023-02-18T15:58:20;41.47;;;20.30;;
10144;SDS011;5113;41.822;23.564;2023-02-18T16:01:29;41.30;;;23.13;;
10144;SDS011;5113;41.822;23.564;2023-02-18T16:04:36;47.13;;;25.10;;
10144;SDS011;5113;41.822;23.564;2023-02-18T16:07:50;40.00;;;21.90;;
10144;SDS011;5113;41.822;23.564;2023-02-18T16:10:58;45.03;;;25.97;;
10144;SDS011;5113;41.822;23.564;2023-02-18T16:14:19;52.17;;;25.70;;
10144;SDS011;5113;41.822;23.564;2023-02-18T16:17:28;90.53;;;41.53;;
10144;SDS011;5113;41.822;23.564;2023-02-18T16:20:36;154.07;;;58.60;;
10144;SDS011;5113;41.822;23.564;2023-02-18T16:23:50;125.57;;;52.37;;
10144;SDS011;5113;41.822;23.564;2023-02-18T16:27:01;108.47;;;44.43;;
10144;SDS011;5113;41.822;23.564;2023-02-18T16:30:13;131.57;;;53.90;;
10144;SDS011;5113;41.822;23.564;2023-02-18T16:33:21;135.70;;;56.47;;
10144;SDS011;5113;41.822;23.564;2023-02-18T16:36:27;140.73;;;58.17;;
10144;SDS011;5113;41.822;23.564;2023-02-18T16:39:35;138.90;;;60.13;;
10144;SDS011;5113;41.822;23.564;2023-02-18T16:42:42;168.80;;;73.97;;
10144;SDS011;5113;41.822;23.564;2023-02-18T16:45:49;118.90;;;51.70;;
10144;SDS011;5113;41.822;23.564;2023-02-18T16:48:56;89.67;;;39.43;;
10144;SDS011;5113;41.822;23.564;2023-02-18T16:52:05;40.87;;;23.03;;
10144;SDS011;5113;41.822;23.564;2023-02-18T16:55:16;65.93;;;33.80;;
10144;SDS011;5113;41.822;23.564;2023-02-18T16:58:24;70.83;;;27.97;;
10144;SDS011;5113;41.822;23.564;2023-02-18T17:01:31;60.60;;;32.23;;
10144;SDS011;5113;41.822;23.564;2023-02-18T17:04:41;51.10;;;25.03;;
10144;SDS011;5113;41.822;23.564;2023-02-18T17:07:48;56.13;;;27.47;;
10144;SDS011;5113;41.822;23.564;2023-02-18T17:10:56;87.00;;;40.43;;
10144;SDS011;5113;41.822;23.564;2023-02-18T17:14:03;78.57;;;39.00;;
10144;SDS011;5113;41.822;23.564;2023-02-18T17:17:10;102.27;;;46.70;;
10144;SDS011;5113;41.822;23.564;2023-02-18T17:20:18;121.53;;;52.83;;
10144;SDS011;5113;41.822;23.564;2023-02-18T17:23:25;153.53;;;68.73;;
10144;SDS011;5113;41.822;23.564;2023-02-18T17:26:33;151.70;;;70.60;;
10144;SDS011;5113;41.822;23.564;2023-02-18T17:29:39;243.40;;;84.70;;
10144;SDS011;5113;41.822;23.564;2023-02-18T17:32:45;184.47;;;70.47;;
10144;SDS011;5113;41.822;23.564;2023-02-18T17:35:52;109.50;;;49.50;;
10144;SDS011;5113;41.822;23.564;2023-02-18T17:38:59;128.10;;;52.10;;
10144;SDS011;5113;41.822;23.564;2023-02-18T17:42:09;118.80;;;48.77;;
10144;SDS011;5113;41.822;23.564;2023-02-18T17:45:36;102.83;;;45.53;;
10144;SDS011;5113;41.822;23.564;2023-02-18T17:48:47;76.93;;;38.87;;
10144;SDS011;5113;41.822;23.564;2023-02-18T17:51:54;88.83;;;38.40;;
10144;SDS011;5113;41.822;23.564;2023-02-18T17:55:04;79.57;;;42.67;;
10144;SDS011;5113;41.822;23.564;2023-02-18T17:58:21;82.57;;;37.33;;
10144;SDS011;5113;41.822;23.564;2023-02-18T18:01:27;94.70;;;39.30;;
10144;SDS011;5113;41.822;23.564;2023-02-18T18:04:33;88.67;;;36.47;;
10144;SDS011;5113;41.822;23.564;2023-02-18T18:07:40;66.60;;;34.73;;
10144;SDS011;5113;41.822;23.564;2023-02-18T18:10:47;42.90;;;24.20;;
10144;SDS011;5113;41.822;23.564;2023-02-18T18:13:57;24.83;;;12.87;;
10144;SDS011;5113;41.822;23.564;2023-02-18T18:17:04;21.33;;;12.93;;
10144;SDS011;5113;41.822;23.564;2023-02-18T18:20:15;26.70;;;12.67;;
10144;SDS011;5113;41.822;23.564;2023-02-18T18:23:21;29.37;;;14.67;;
10144;SDS011;5113;41.822;23.564;2023-02-18T18:26:28;58.10;;;26.47;;
10144;SDS011;5113;41.822;23.564;2023-02-18T18:29:36;71.07;;;30.03;;
10144;SDS011;5113;41.822;23.564;2023-02-18T18:32:43;101.30;;;44.73;;
10144;SDS011;5113;41.822;23.564;2023-02-18T18:35:50;53.33;;;22.93;;
10144;SDS011;5113;41.822;23.564;2023-02-18T18:38:58;24.37;;;8.67;;
10144;SDS011;5113;41.822;23.564;2023-02-18T18:42:04;17.00;;;8.47;;
10144;SDS011;5113;41.822;23.564;2023-02-18T18:45:15;7.93;;;4.20;;
10144;SDS011;5113;41.822;23.564;2023-02-18T18:48:24;153.60;;;73.20;;
10144;SDS011;5113;41.822;23.564;2023-02-18T18:51:31;5.53;;;4.27;;
10144;SDS011;5113;41.822;23.564;2023-02-18T18:54:37;10.77;;;9.67;;
10144;SDS011;5113;41.822;23.564;2023-02-18T18:57:45;17.60;;;8.13;;
10144;SDS011;5113;41.822;23.564;2023-02-18T19:00:54;8.40;;;5.90;;